sensor_id;sensor_type;location;lat;lon;timestamp;P1;durP1;ratioP1;P2;durP2;ratioP2
81191;SDS011;70665;47.652;-2.730;2023-08-08T00:00:10;3.85;;;1.92;;
81191;SDS011;70665;47.652;-2.730;2023-08-08T00:02:36;6.35;;;1.88;;
81191;SDS011;70665;47.652;-2.730;2023-08-08T00:07:28;5.93;;;2.30;;
81191;SDS011;70665;47.652;-2.730;2023-08-08T00:09:56;4.32;;;1.80;;
81191;SDS011;70665;47.652;-2.730;2023-08-08T00:14:48;4.50;;;1.80;;
81191;SDS011;70665;47.652;-2.730;2023-08-08T00:17:13;6.38;;;2.00;;
81191;SDS011;70665;47.652;-2.730;2023-08-08T00:22:05;3.47;;;1.83;;
81191;SDS011;70665;47.652;-2.730;2023-08-08T00:24:31;4.80;;;2.00;;
81191;SDS011;70665;47.652;-2.730;2023-08-08T00:29:22;5.22;;;1.92;;
81191;SDS011;70665;47.652;-2.730;2023-08-08T00:31:48;5.35;;;1.73;;
81191;SDS011;70665;47.652;-2.730;2023-08-08T00:34:14;6.43;;;1.70;;
81191;SDS011;70665;47.652;-2.730;2023-08-08T00:39:05;4.85;;;1.73;;
81191;SDS011;70665;47.652;-2.730;2023-08-08T00:41:30;6.93;;;1.83;;
81191;SDS011;70665;47.652;-2.730;2023-08-08T00:43:56;4.22;;;2.03;;
81191;SDS011;70665;47.652;-2.730;2023-08-08T00:46:22;6.13;;;2.00;;
81191;SDS011;70665;47.652;-2.730;2023-08-08T00:48:49;6.22;;;2.20;;
81191;SDS011;70665;47.652;-2.730;2023-08-08T00:51:18;5.20;;;2.58;;
81191;SDS011;70665;47.652;-2.730;2023-08-08T00:53:46;4.80;;;1.95;;
81191;SDS011;70665;47.652;-2.730;2023-08-08T00:56:15;6.20;;;2.20;;
81191;SDS011;70665;47.652;-2.730;2023-08-08T00:58:42;6.60;;;2.20;;
81191;SDS011;70665;47.652;-2.730;2023-08-08T01:01:10;3.95;;;1.77;;
81191;SDS011;70665;47.652;-2.730;2023-08-08T01:03:37;4.57;;;2.00;;
81191;SDS011;70665;47.652;-2.730;2023-08-08T01:08:53;5.10;;;1.70;;
81191;SDS011;70665;47.652;-2.730;2023-08-08T01:11:22;4.38;;;1.65;;
81191;SDS011;70665;47.652;-2.730;2023-08-08T01:13:48;4.45;;;2.03;;
81191;SDS011;70665;47.652;-2.730;2023-08-08T01:16:16;6.20;;;1.92;;
81191;SDS011;70665;47.652;-2.730;2023-08-08T01:18:44;5.30;;;1.83;;
81191;SDS011;70665;47.652;-2.730;2023-08-08T01:21:14;8.23;;;2.13;;
81191;SDS011;70665;47.652;-2.730;2023-08-08T01:23:42;4.35;;;1.90;;
81191;SDS011;70665;47.652;-2.730;2023-08-08T01:26:25;4.47;;;1.52;;
81191;SDS011;70665;47.652;-2.730;2023-08-08T01:28:53;6.95;;;1.92;;
81191;SDS011;70665;47.652;-2.730;2023-08-08T01:31:19;4.93;;;2.03;;
81191;SDS011;70665;47.652;-2.730;2023-08-08T01:33:45;3.85;;;1.98;;
81191;SDS011;70665;47.652;-2.730;2023-08-08T01:39:00;5.20;;;1.77;;
81191;SDS011;70665;47.652;-2.730;2023-08-08T01:41:31;6.68;;;1.73;;
81191;SDS011;70665;47.652;-2.730;2023-08-08T01:43:58;5.43;;;1.75;;
81191;SDS011;70665;47.652;-2.730;2023-08-08T01:46:25;5.70;;;1.80;;
81191;SDS011;70665;47.652;-2.730;2023-08-08T01:48:52;7.13;;;1.88;;
81191;SDS011;70665;47.652;-2.730;2023-08-08T01:53:43;4.15;;;1.85;;
81191;SDS011;70665;47.652;-2.730;2023-08-08T01:56:08;6.00;;;1.90;;
81191;SDS011;70665;47.652;-2.730;2023-08-08T02:00:59;4.70;;;1.65;;
81191;SDS011;70665;47.652;-2.730;2023-08-08T02:05:50;3.88;;;1.70;;
81191;SDS011;70665;47.652;-2.730;2023-08-08T02:10:43;4.82;;;1.73;;
81191;SDS011;70665;47.652;-2.730;2023-08-08T02:15:34;7.63;;;1.98;;
81191;SDS011;70665;47.652;-2.730;2023-08-08T02:17:59;4.15;;;2.00;;
81191;SDS011;70665;47.652;-2.730;2023-08-08T02:20:25;4.45;;;1.70;;
81191;SDS011;70665;47.652;-2.730;2023-08-08T02:25:17;6.38;;;1.67;;
81191;SDS011;70665;47.652;-2.730;2023-08-08T02:30:08;3.58;;;1.50;;
81191;SDS011;70665;47.652;-2.730;2023-08-08T02:32:34;4.45;;;1.63;;
81191;SDS011;70665;47.652;-2.730;2023-08-08T02:35:00;3.85;;;1.67;;
81191;SDS011;70665;47.652;-2.730;2023-08-08T02:39:51;6.20;;;1.80;;
81191;SDS011;70665;47.652;-2.730;2023-08-08T02:44:42;4.85;;;1.67;;
81191;SDS011;70665;47.652;-2.730;2023-08-08T02:49:33;3.50;;;1.50;;
81191;SDS011;70665;47.652;-2.730;2023-08-08T02:54:25;4.72;;;1.95;;
81191;SDS011;70665;47.652;-2.730;2023-08-08T02:56:50;7.22;;;1.70;;
81191;SDS011;70665;47.652;-2.730;2023-08-08T02:59:16;3.88;;;1.50;;
81191;SDS011;70665;47.652;-2.730;2023-08-08T03:01:42;5.45;;;1.75;;
81191;SDS011;70665;47.652;-2.730;2023-08-08T03:04:07;6.72;;;1.80;;
81191;SDS011;70665;47.652;-2.730;2023-08-08T03:08:58;4.80;;;1.80;;
81191;SDS011;70665;47.652;-2.730;2023-08-08T03:11:24;4.63;;;1.52;;
81191;SDS011;70665;47.652;-2.730;2023-08-08T03:16:15;2.75;;;1.60;;
81191;SDS011;70665;47.652;-2.730;2023-08-08T03:21:06;4.68;;;1.65;;
81191;SDS011;70665;47.652;-2.730;2023-08-08T03:25:57;4.22;;;1.60;;
81191;SDS011;70665;47.652;-2.730;2023-08-08T03:30:49;4.82;;;1.65;;
81191;SDS011;70665;47.652;-2.730;2023-08-08T03:35:40;2.88;;;1.35;;
81191;SDS011;70665;47.652;-2.730;2023-08-08T03:40:32;7.43;;;1.80;;
81191;SDS011;70665;47.652;-2.730;2023-08-08T03:42:58;5.50;;;1.98;;
81191;SDS011;70665;47.652;-2.730;2023-08-08T03:47:49;8.90;;;1.85;;
81191;SDS011;70665;47.652;-2.730;2023-08-08T03:52:40;4.05;;;1.70;;
81191;SDS011;70665;47.652;-2.730;2023-08-08T03:57:31;7.10;;;1.80;;
81191;SDS011;70665;47.652;-2.730;2023-08-08T04:02:22;5.63;;;1.63;;
81191;SDS011;70665;47.652;-2.730;2023-08-08T04:04:49;5.05;;;1.90;;
81191;SDS011;70665;47.652;-2.730;2023-08-08T04:07:14;6.95;;;1.80;;
81191;SDS011;70665;47.652;-2.730;2023-08-08T04:12:07;7.85;;;1.92;;
81191;SDS011;70665;47.652;-2.730;2023-08-08T04:16:58;8.55;;;2.20;;
81191;SDS011;70665;47.652;-2.730;2023-08-08T04:21:50;6.95;;;2.03;;
81191;SDS011;70665;47.652;-2.730;2023-08-08T04:26:41;4.97;;;1.95;;
81191;SDS011;70665;47.652;-2.730;2023-08-08T04:31:32;8.07;;;1.88;;
81191;SDS011;70665;47.652;-2.730;2023-08-08T04:36:26;4.50;;;1.98;;
81191;SDS011;70665;47.652;-2.730;2023-08-08T04:38:52;7.93;;;2.00;;
81191;SDS011;70665;47.652;-2.730;2023-08-08T04:41:18;5.18;;;1.90;;
81191;SDS011;70665;47.652;-2.730;2023-08-08T04:46:09;7.18;;;1.80;;
81191;SDS011;70665;47.652;-2.730;2023-08-08T04:51:02;5.55;;;2.20;;
81191;SDS011;70665;47.652;-2.730;2023-08-08T04:53:29;5.40;;;1.90;;
81191;SDS011;70665;47.652;-2.730;2023-08-08T04:55:55;6.68;;;1.80;;
81191;SDS011;70665;47.652;-2.730;2023-08-08T05:00:46;5.15;;;1.70;;
81191;SDS011;70665;47.652;-2.730;2023-08-08T05:03:12;5.85;;;1.95;;
81191;SDS011;70665;47.652;-2.730;2023-08-08T05:08:03;5.70;;;2.10;;
81191;SDS011;70665;47.652;-2.730;2023-08-08T05:12:56;6.03;;;2.08;;
81191;SDS011;70665;47.652;-2.730;2023-08-08T05:17:47;6.05;;;2.45;;
81191;SDS011;70665;47.652;-2.730;2023-08-08T05:20:13;5.30;;;2.15;;
81191;SDS011;70665;47.652;-2.730;2023-08-08T05:25:04;4.28;;;1.92;;
81191;SDS011;70665;47.652;-2.730;2023-08-08T05:27:31;5.13;;;1.90;;
81191;SDS011;70665;47.652;-2.730;2023-08-08T05:29:56;5.43;;;2.08;;
81191;SDS011;70665;47.652;-2.730;2023-08-08T05:34:47;3.90;;;1.92;;
81191;SDS011;70665;47.652;-2.730;2023-08-08T05:37:14;6.20;;;2.00;;
81191;SDS011;70665;47.652;-2.730;2023-08-08T05:39:40;4.15;;;1.83;;
81191;SDS011;70665;47.652;-2.730;2023-08-08T05:42:05;7.15;;;2.33;;
81191;SDS011;70665;47.652;-2.730;2023-08-08T05:46:57;6.43;;;1.63;;
81191;SDS011;70665;47.652;-2.730;2023-08-08T05:51:48;4.18;;;1.85;;
81191;SDS011;70665;47.652;-2.730;2023-08-08T05:56:39;7.85;;;2.00;;
81191;SDS011;70665;47.652;-2.730;2023-08-08T05:59:04;6.97;;;2.03;;
81191;SDS011;70665;47.652;-2.730;2023-08-08T06:03:56;3.97;;;1.60;;
81191;SDS011;70665;47.652;-2.730;2023-08-08T06:06:24;3.95;;;1.95;;
81191;SDS011;70665;47.652;-2.730;2023-08-08T06:08:50;8.68;;;1.77;;
81191;SDS011;70665;47.652;-2.730;2023-08-08T06:11:16;7.18;;;2.95;;
81191;SDS011;70665;47.652;-2.730;2023-08-08T06:16:08;6.90;;;2.30;;
81191;SDS011;70665;47.652;-2.730;2023-08-08T06:20:59;6.30;;;2.10;;
81191;SDS011;70665;47.652;-2.730;2023-08-08T06:23:24;6.03;;;2.17;;
81191;SDS011;70665;47.652;-2.730;2023-08-08T06:28:15;7.72;;;2.28;;
81191;SDS011;70665;47.652;-2.730;2023-08-08T06:33:07;8.85;;;2.70;;
81191;SDS011;70665;47.652;-2.730;2023-08-08T06:35:33;7.15;;;2.25;;
81191;SDS011;70665;47.652;-2.730;2023-08-08T06:40:24;5.40;;;2.42;;
81191;SDS011;70665;47.652;-2.730;2023-08-08T06:42:50;4.70;;;2.40;;
81191;SDS011;70665;47.652;-2.730;2023-08-08T06:47:41;6.25;;;2.60;;
81191;SDS011;70665;47.652;-2.730;2023-08-08T06:52:32;7.05;;;2.05;;
81191;SDS011;70665;47.652;-2.730;2023-08-08T06:54:58;6.60;;;1.95;;
81191;SDS011;70665;47.652;-2.730;2023-08-08T06:59:49;4.90;;;2.58;;
81191;SDS011;70665;47.652;-2.730;2023-08-08T07:02:18;6.25;;;2.28;;
81191;SDS011;70665;47.652;-2.730;2023-08-08T07:04:44;9.00;;;2.40;;
81191;SDS011;70665;47.652;-2.730;2023-08-08T07:09:36;8.55;;;2.38;;
81191;SDS011;70665;47.652;-2.730;2023-08-08T07:12:02;7.55;;;2.17;;
81191;SDS011;70665;47.652;-2.730;2023-08-08T07:14:29;5.82;;;2.22;;
81191;SDS011;70665;47.652;-2.730;2023-08-08T07:19:20;11.65;;;2.60;;
81191;SDS011;70665;47.652;-2.730;2023-08-08T07:24:12;5.65;;;2.40;;
81191;SDS011;70665;47.652;-2.730;2023-08-08T07:26:38;8.98;;;2.20;;
81191;SDS011;70665;47.652;-2.730;2023-08-08T07:29:04;5.32;;;2.10;;
81191;SDS011;70665;47.652;-2.730;2023-08-08T07:31:31;5.80;;;2.20;;
81191;SDS011;70665;47.652;-2.730;2023-08-08T07:33:57;6.50;;;1.90;;
81191;SDS011;70665;47.652;-2.730;2023-08-08T07:38:48;8.27;;;1.60;;
81191;SDS011;70665;47.652;-2.730;2023-08-08T07:41:14;4.70;;;1.80;;
81191;SDS011;70665;47.652;-2.730;2023-08-08T07:46:05;6.60;;;1.95;;
81191;SDS011;70665;47.652;-2.730;2023-08-08T07:48:31;5.03;;;1.77;;
81191;SDS011;70665;47.652;-2.730;2023-08-08T07:50:57;5.55;;;1.70;;
81191;SDS011;70665;47.652;-2.730;2023-08-08T07:53:22;4.55;;;1.67;;
81191;SDS011;70665;47.652;-2.730;2023-08-08T07:55:48;4.80;;;1.63;;
81191;SDS011;70665;47.652;-2.730;2023-08-08T07:58:13;4.90;;;1.60;;
81191;SDS011;70665;47.652;-2.730;2023-08-08T08:00:39;5.80;;;1.70;;
81191;SDS011;70665;47.652;-2.730;2023-08-08T08:03:05;4.65;;;1.60;;
81191;SDS011;70665;47.652;-2.730;2023-08-08T08:05:31;6.22;;;1.95;;
81191;SDS011;70665;47.652;-2.730;2023-08-08T08:07:59;5.28;;;1.75;;
81191;SDS011;70665;47.652;-2.730;2023-08-08T08:10:25;8.00;;;1.67;;
81191;SDS011;70665;47.652;-2.730;2023-08-08T08:12:51;7.55;;;1.83;;
81191;SDS011;70665;47.652;-2.730;2023-08-08T08:15:22;5.45;;;1.75;;
81191;SDS011;70665;47.652;-2.730;2023-08-08T08:17:48;8.98;;;1.80;;
81191;SDS011;70665;47.652;-2.730;2023-08-08T08:20:14;5.43;;;1.67;;
81191;SDS011;70665;47.652;-2.730;2023-08-08T08:22:40;4.50;;;1.70;;
81191;SDS011;70665;47.652;-2.730;2023-08-08T08:25:06;6.57;;;2.20;;
81191;SDS011;70665;47.652;-2.730;2023-08-08T08:27:35;5.57;;;1.92;;
81191;SDS011;70665;47.652;-2.730;2023-08-08T08:30:02;7.10;;;1.90;;
81191;SDS011;70665;47.652;-2.730;2023-08-08T08:32:31;6.07;;;1.77;;
81191;SDS011;70665;47.652;-2.730;2023-08-08T08:34:58;5.95;;;1.85;;
81191;SDS011;70665;47.652;-2.730;2023-08-08T08:37:23;6.93;;;2.03;;
81191;SDS011;70665;47.652;-2.730;2023-08-08T08:39:49;6.07;;;2.10;;
81191;SDS011;70665;47.652;-2.730;2023-08-08T08:42:15;5.90;;;1.83;;
81191;SDS011;70665;47.652;-2.730;2023-08-08T08:44:41;6.35;;;1.67;;
81191;SDS011;70665;47.652;-2.730;2023-08-08T08:47:08;8.25;;;1.70;;
81191;SDS011;70665;47.652;-2.730;2023-08-08T08:49:38;5.95;;;1.70;;
81191;SDS011;70665;47.652;-2.730;2023-08-08T08:52:04;5.68;;;1.77;;
81191;SDS011;70665;47.652;-2.730;2023-08-08T08:54:31;5.85;;;1.65;;
81191;SDS011;70665;47.652;-2.730;2023-08-08T08:56:57;5.57;;;2.25;;
81191;SDS011;70665;47.652;-2.730;2023-08-08T08:59:24;6.38;;;2.03;;
81191;SDS011;70665;47.652;-2.730;2023-08-08T09:01:50;8.40;;;1.88;;
81191;SDS011;70665;47.652;-2.730;2023-08-08T09:04:18;6.07;;;2.10;;
81191;SDS011;70665;47.652;-2.730;2023-08-08T09:06:45;7.72;;;2.25;;
81191;SDS011;70665;47.652;-2.730;2023-08-08T09:09:12;6.07;;;1.98;;
81191;SDS011;70665;47.652;-2.730;2023-08-08T09:11:40;5.05;;;1.83;;
81191;SDS011;70665;47.652;-2.730;2023-08-08T09:14:21;6.13;;;2.30;;
81191;SDS011;70665;47.652;-2.730;2023-08-08T09:16:48;7.20;;;1.73;;
81191;SDS011;70665;47.652;-2.730;2023-08-08T09:19:15;4.10;;;1.60;;
81191;SDS011;70665;47.652;-2.730;2023-08-08T09:21:43;5.90;;;2.05;;
81191;SDS011;70665;47.652;-2.730;2023-08-08T09:24:08;5.95;;;2.03;;
81191;SDS011;70665;47.652;-2.730;2023-08-08T09:26:34;6.90;;;1.63;;
81191;SDS011;70665;47.652;-2.730;2023-08-08T09:29:00;8.25;;;2.30;;
81191;SDS011;70665;47.652;-2.730;2023-08-08T09:31:27;5.63;;;2.10;;
81191;SDS011;70665;47.652;-2.730;2023-08-08T09:33:53;6.95;;;1.90;;
81191;SDS011;70665;47.652;-2.730;2023-08-08T09:36:22;7.53;;;2.10;;
81191;SDS011;70665;47.652;-2.730;2023-08-08T09:38:48;3.85;;;1.92;;
81191;SDS011;70665;47.652;-2.730;2023-08-08T09:41:14;8.90;;;2.13;;
81191;SDS011;70665;47.652;-2.730;2023-08-08T09:43:42;7.70;;;2.30;;
81191;SDS011;70665;47.652;-2.730;2023-08-08T09:46:09;5.45;;;2.22;;
81191;SDS011;70665;47.652;-2.730;2023-08-08T09:48:35;5.95;;;2.40;;
81191;SDS011;70665;47.652;-2.730;2023-08-08T09:51:03;5.85;;;2.13;;
81191;SDS011;70665;47.652;-2.730;2023-08-08T09:53:30;5.55;;;2.33;;
81191;SDS011;70665;47.652;-2.730;2023-08-08T09:55:57;6.55;;;2.22;;
81191;SDS011;70665;47.652;-2.730;2023-08-08T09:58:23;8.13;;;2.33;;
81191;SDS011;70665;47.652;-2.730;2023-08-08T10:00:49;5.85;;;2.20;;
81191;SDS011;70665;47.652;-2.730;2023-08-08T10:03:18;7.90;;;2.33;;
81191;SDS011;70665;47.652;-2.730;2023-08-08T10:05:44;5.47;;;1.88;;
81191;SDS011;70665;47.652;-2.730;2023-08-08T10:08:10;9.07;;;2.47;;
81191;SDS011;70665;47.652;-2.730;2023-08-08T10:10:40;8.90;;;2.65;;
81191;SDS011;70665;47.652;-2.730;2023-08-08T10:13:06;8.65;;;2.13;;
81191;SDS011;70665;47.652;-2.730;2023-08-08T10:15:32;5.93;;;2.00;;
81191;SDS011;70665;47.652;-2.730;2023-08-08T10:18:02;7.13;;;2.22;;
81191;SDS011;70665;47.652;-2.730;2023-08-08T10:20:30;8.25;;;2.45;;
81191;SDS011;70665;47.652;-2.730;2023-08-08T10:22:58;7.47;;;2.25;;
81191;SDS011;70665;47.652;-2.730;2023-08-08T10:25:26;7.35;;;2.00;;
81191;SDS011;70665;47.652;-2.730;2023-08-08T10:28:04;5.72;;;2.38;;
81191;SDS011;70665;47.652;-2.730;2023-08-08T10:30:45;5.50;;;2.50;;
81191;SDS011;70665;47.652;-2.730;2023-08-08T10:33:16;8.98;;;2.40;;
81191;SDS011;70665;47.652;-2.730;2023-08-08T10:38:26;5.57;;;1.98;;
81191;SDS011;70665;47.652;-2.730;2023-08-08T10:41:08;5.53;;;2.00;;
81191;SDS011;70665;47.652;-2.730;2023-08-08T10:43:38;4.28;;;2.13;;
81191;SDS011;70665;47.652;-2.730;2023-08-08T10:46:11;8.27;;;2.40;;
81191;SDS011;70665;47.652;-2.730;2023-08-08T10:48:37;5.25;;;1.77;;
81191;SDS011;70665;47.652;-2.730;2023-08-08T10:51:15;7.07;;;2.03;;
81191;SDS011;70665;47.652;-2.730;2023-08-08T10:53:42;4.28;;;1.95;;
81191;SDS011;70665;47.652;-2.730;2023-08-08T10:56:12;8.73;;;2.05;;
81191;SDS011;70665;47.652;-2.730;2023-08-08T10:58:39;8.02;;;2.22;;
81191;SDS011;70665;47.652;-2.730;2023-08-08T11:01:06;7.15;;;2.10;;
81191;SDS011;70665;47.652;-2.730;2023-08-08T11:03:33;5.57;;;1.77;;
81191;SDS011;70665;47.652;-2.730;2023-08-08T11:06:04;6.47;;;1.80;;
81191;SDS011;70665;47.652;-2.730;2023-08-08T11:08:31;4.88;;;1.88;;
81191;SDS011;70665;47.652;-2.730;2023-08-08T11:10:58;4.78;;;2.20;;
81191;SDS011;70665;47.652;-2.730;2023-08-08T11:13:24;7.60;;;1.90;;
81191;SDS011;70665;47.652;-2.730;2023-08-08T11:15:50;5.63;;;1.95;;
81191;SDS011;70665;47.652;-2.730;2023-08-08T11:18:16;5.97;;;2.22;;
81191;SDS011;70665;47.652;-2.730;2023-08-08T11:20:41;5.63;;;2.08;;
81191;SDS011;70665;47.652;-2.730;2023-08-08T11:23:07;3.20;;;1.73;;
81191;SDS011;70665;47.652;-2.730;2023-08-08T11:25:35;5.43;;;2.20;;
81191;SDS011;70665;47.652;-2.730;2023-08-08T11:28:02;4.93;;;1.75;;
81191;SDS011;70665;47.652;-2.730;2023-08-08T11:30:28;7.45;;;2.03;;
81191;SDS011;70665;47.652;-2.730;2023-08-08T11:35:25;6.32;;;2.03;;
81191;SDS011;70665;47.652;-2.730;2023-08-08T11:37:53;5.10;;;1.75;;
81191;SDS011;70665;47.652;-2.730;2023-08-08T11:40:20;5.15;;;2.00;;
81191;SDS011;70665;47.652;-2.730;2023-08-08T11:42:49;3.63;;;1.63;;
81191;SDS011;70665;47.652;-2.730;2023-08-08T11:45:16;3.25;;;1.58;;
81191;SDS011;70665;47.652;-2.730;2023-08-08T11:47:43;5.05;;;1.50;;
81191;SDS011;70665;47.652;-2.730;2023-08-08T11:50:09;5.32;;;1.92;;
81191;SDS011;70665;47.652;-2.730;2023-08-08T11:52:39;5.15;;;1.67;;
81191;SDS011;70665;47.652;-2.730;2023-08-08T11:55:07;3.53;;;1.70;;
81191;SDS011;70665;47.652;-2.730;2023-08-08T11:57:36;4.25;;;1.70;;
81191;SDS011;70665;47.652;-2.730;2023-08-08T12:00:07;4.28;;;1.70;;
81191;SDS011;70665;47.652;-2.730;2023-08-08T12:02:39;6.93;;;1.52;;
81191;SDS011;70665;47.652;-2.730;2023-08-08T12:05:06;4.97;;;1.60;;
81191;SDS011;70665;47.652;-2.730;2023-08-08T12:07:33;5.78;;;1.73;;
81191;SDS011;70665;47.652;-2.730;2023-08-08T12:10:04;3.85;;;1.58;;
81191;SDS011;70665;47.652;-2.730;2023-08-08T12:12:31;4.13;;;1.55;;
81191;SDS011;70665;47.652;-2.730;2023-08-08T12:15:09;5.40;;;1.63;;
81191;SDS011;70665;47.652;-2.730;2023-08-08T12:17:36;4.32;;;1.50;;
81191;SDS011;70665;47.652;-2.730;2023-08-08T12:20:05;4.90;;;1.60;;
81191;SDS011;70665;47.652;-2.730;2023-08-08T12:22:32;6.50;;;1.58;;
81191;SDS011;70665;47.652;-2.730;2023-08-08T12:24:58;4.05;;;1.42;;
81191;SDS011;70665;47.652;-2.730;2023-08-08T12:27:23;6.18;;;1.85;;
81191;SDS011;70665;47.652;-2.730;2023-08-08T12:29:49;5.00;;;1.73;;
81191;SDS011;70665;47.652;-2.730;2023-08-08T12:32:15;4.15;;;1.55;;
81191;SDS011;70665;47.652;-2.730;2023-08-08T12:34:40;5.05;;;1.70;;
81191;SDS011;70665;47.652;-2.730;2023-08-08T12:37:06;5.40;;;1.55;;
81191;SDS011;70665;47.652;-2.730;2023-08-08T12:39:32;5.53;;;1.80;;
81191;SDS011;70665;47.652;-2.730;2023-08-08T12:41:58;8.15;;;1.75;;
81191;SDS011;70665;47.652;-2.730;2023-08-08T12:44:23;2.70;;;1.40;;
81191;SDS011;70665;47.652;-2.730;2023-08-08T12:46:49;5.38;;;1.55;;
81191;SDS011;70665;47.652;-2.730;2023-08-08T12:49:14;6.03;;;1.85;;
81191;SDS011;70665;47.652;-2.730;2023-08-08T12:51:40;4.65;;;1.70;;
81191;SDS011;70665;47.652;-2.730;2023-08-08T12:54:06;5.40;;;1.40;;
81191;SDS011;70665;47.652;-2.730;2023-08-08T12:56:32;5.25;;;1.73;;
81191;SDS011;70665;47.652;-2.730;2023-08-08T12:58:58;4.32;;;1.50;;
81191;SDS011;70665;47.652;-2.730;2023-08-08T13:01:23;5.70;;;1.48;;
81191;SDS011;70665;47.652;-2.730;2023-08-08T13:03:52;4.22;;;1.23;;
81191;SDS011;70665;47.652;-2.730;2023-08-08T13:06:17;5.80;;;1.65;;
81191;SDS011;70665;47.652;-2.730;2023-08-08T13:08:43;3.92;;;1.50;;
81191;SDS011;70665;47.652;-2.730;2023-08-08T13:11:09;4.30;;;1.52;;
81191;SDS011;70665;47.652;-2.730;2023-08-08T13:13:35;4.55;;;1.40;;
81191;SDS011;70665;47.652;-2.730;2023-08-08T13:16:00;3.67;;;1.60;;
81191;SDS011;70665;47.652;-2.730;2023-08-08T13:18:26;5.93;;;1.48;;
81191;SDS011;70665;47.652;-2.730;2023-08-08T13:20:52;6.40;;;1.50;;
81191;SDS011;70665;47.652;-2.730;2023-08-08T13:23:17;4.38;;;1.52;;
81191;SDS011;70665;47.652;-2.730;2023-08-08T13:25:43;3.10;;;1.75;;
81191;SDS011;70665;47.652;-2.730;2023-08-08T13:28:09;4.88;;;1.50;;
81191;SDS011;70665;47.652;-2.730;2023-08-08T13:30:34;5.30;;;1.73;;
81191;SDS011;70665;47.652;-2.730;2023-08-08T13:33:00;5.22;;;1.50;;
81191;SDS011;70665;47.652;-2.730;2023-08-08T13:35:26;4.93;;;1.45;;
81191;SDS011;70665;47.652;-2.730;2023-08-08T13:37:52;3.60;;;1.40;;
81191;SDS011;70665;47.652;-2.730;2023-08-08T13:40:19;6.28;;;1.45;;
81191;SDS011;70665;47.652;-2.730;2023-08-08T13:42:45;3.78;;;1.33;;
81191;SDS011;70665;47.652;-2.730;2023-08-08T13:45:13;5.35;;;1.73;;
81191;SDS011;70665;47.652;-2.730;2023-08-08T13:47:39;4.15;;;1.65;;
81191;SDS011;70665;47.652;-2.730;2023-08-08T13:50:05;5.60;;;1.40;;
81191;SDS011;70665;47.652;-2.730;2023-08-08T13:52:32;4.82;;;1.50;;
81191;SDS011;70665;47.652;-2.730;2023-08-08T13:54:58;4.95;;;1.52;;
81191;SDS011;70665;47.652;-2.730;2023-08-08T13:57:24;4.68;;;1.48;;
81191;SDS011;70665;47.652;-2.730;2023-08-08T13:59:50;5.93;;;1.40;;
81191;SDS011;70665;47.652;-2.730;2023-08-08T14:02:15;5.40;;;1.60;;
81191;SDS011;70665;47.652;-2.730;2023-08-08T14:04:43;4.90;;;1.20;;
81191;SDS011;70665;47.652;-2.730;2023-08-08T14:07:09;5.18;;;1.27;;
81191;SDS011;70665;47.652;-2.730;2023-08-08T14:09:35;6.18;;;1.55;;
81191;SDS011;70665;47.652;-2.730;2023-08-08T14:12:01;2.78;;;1.23;;
81191;SDS011;70665;47.652;-2.730;2023-08-08T14:14:26;2.55;;;1.50;;
81191;SDS011;70665;47.652;-2.730;2023-08-08T14:16:52;2.50;;;0.98;;
81191;SDS011;70665;47.652;-2.730;2023-08-08T14:19:18;6.47;;;1.40;;
81191;SDS011;70665;47.652;-2.730;2023-08-08T14:21:44;3.85;;;1.23;;
81191;SDS011;70665;47.652;-2.730;2023-08-08T14:24:10;4.70;;;1.20;;
81191;SDS011;70665;47.652;-2.730;2023-08-08T14:26:35;5.22;;;1.30;;
81191;SDS011;70665;47.652;-2.730;2023-08-08T14:29:01;5.15;;;1.75;;
81191;SDS011;70665;47.652;-2.730;2023-08-08T14:31:27;3.85;;;1.50;;
81191;SDS011;70665;47.652;-2.730;2023-08-08T14:33:52;5.20;;;1.50;;
81191;SDS011;70665;47.652;-2.730;2023-08-08T14:36:18;3.65;;;1.35;;
81191;SDS011;70665;47.652;-2.730;2023-08-08T14:38:43;5.97;;;1.30;;
81191;SDS011;70665;47.652;-2.730;2023-08-08T14:41:09;6.85;;;1.17;;
81191;SDS011;70665;47.652;-2.730;2023-08-08T14:43:35;5.63;;;1.40;;
81191;SDS011;70665;47.652;-2.730;2023-08-08T14:46:00;4.70;;;1.40;;
81191;SDS011;70665;47.652;-2.730;2023-08-08T14:48:26;6.63;;;1.55;;
81191;SDS011;70665;47.652;-2.730;2023-08-08T14:50:52;3.67;;;1.33;;
81191;SDS011;70665;47.652;-2.730;2023-08-08T14:53:17;3.95;;;1.40;;
81191;SDS011;70665;47.652;-2.730;2023-08-08T14:55:43;6.47;;;1.80;;
81191;SDS011;70665;47.652;-2.730;2023-08-08T14:58:09;3.60;;;1.30;;
81191;SDS011;70665;47.652;-2.730;2023-08-08T15:00:34;3.95;;;1.40;;
81191;SDS011;70665;47.652;-2.730;2023-08-08T15:03:00;3.38;;;1.60;;
81191;SDS011;70665;47.652;-2.730;2023-08-08T15:05:25;2.78;;;1.25;;
81191;SDS011;70665;47.652;-2.730;2023-08-08T15:07:51;5.07;;;1.30;;
81191;SDS011;70665;47.652;-2.730;2023-08-08T15:10:17;3.95;;;1.42;;
81191;SDS011;70665;47.652;-2.730;2023-08-08T15:12:42;4.78;;;1.40;;
81191;SDS011;70665;47.652;-2.730;2023-08-08T15:15:08;4.28;;;1.52;;
81191;SDS011;70665;47.652;-2.730;2023-08-08T15:17:34;3.90;;;1.50;;
81191;SDS011;70665;47.652;-2.730;2023-08-08T15:20:00;3.83;;;1.60;;
81191;SDS011;70665;47.652;-2.730;2023-08-08T15:22:26;3.90;;;1.73;;
81191;SDS011;70665;47.652;-2.730;2023-08-08T15:24:52;3.25;;;1.30;;
81191;SDS011;70665;47.652;-2.730;2023-08-08T15:27:17;7.53;;;1.65;;
81191;SDS011;70665;47.652;-2.730;2023-08-08T15:29:43;5.38;;;1.88;;
81191;SDS011;70665;47.652;-2.730;2023-08-08T15:32:10;4.30;;;1.42;;
81191;SDS011;70665;47.652;-2.730;2023-08-08T15:34:35;5.40;;;1.77;;
81191;SDS011;70665;47.652;-2.730;2023-08-08T15:37:02;3.85;;;1.50;;
81191;SDS011;70665;47.652;-2.730;2023-08-08T15:39:27;4.85;;;1.55;;
81191;SDS011;70665;47.652;-2.730;2023-08-08T15:41:53;3.10;;;1.30;;
81191;SDS011;70665;47.652;-2.730;2023-08-08T15:44:19;6.47;;;1.38;;
81191;SDS011;70665;47.652;-2.730;2023-08-08T15:46:44;5.57;;;1.40;;
81191;SDS011;70665;47.652;-2.730;2023-08-08T15:49:10;5.60;;;1.60;;
81191;SDS011;70665;47.652;-2.730;2023-08-08T15:51:37;6.22;;;1.40;;
81191;SDS011;70665;47.652;-2.730;2023-08-08T15:54:06;4.07;;;1.27;;
81191;SDS011;70665;47.652;-2.730;2023-08-08T15:56:32;5.47;;;2.08;;
81191;SDS011;70665;47.652;-2.730;2023-08-08T15:58:58;5.00;;;1.50;;
81191;SDS011;70665;47.652;-2.730;2023-08-08T16:01:24;4.28;;;1.30;;
81191;SDS011;70665;47.652;-2.730;2023-08-08T16:03:49;4.40;;;1.52;;
81191;SDS011;70665;47.652;-2.730;2023-08-08T16:06:15;4.50;;;1.50;;
81191;SDS011;70665;47.652;-2.730;2023-08-08T16:08:41;3.97;;;1.30;;
81191;SDS011;70665;47.652;-2.730;2023-08-08T16:11:06;5.32;;;1.30;;
81191;SDS011;70665;47.652;-2.730;2023-08-08T16:13:32;4.57;;;1.50;;
81191;SDS011;70665;47.652;-2.730;2023-08-08T16:15:57;3.95;;;1.35;;
81191;SDS011;70665;47.652;-2.730;2023-08-08T16:18:23;3.92;;;1.40;;
81191;SDS011;70665;47.652;-2.730;2023-08-08T16:20:49;4.80;;;1.77;;
81191;SDS011;70665;47.652;-2.730;2023-08-08T16:23:14;7.50;;;1.52;;
81191;SDS011;70665;47.652;-2.730;2023-08-08T16:25:40;5.20;;;1.42;;
81191;SDS011;70665;47.652;-2.730;2023-08-08T16:28:05;5.65;;;1.50;;
81191;SDS011;70665;47.652;-2.730;2023-08-08T16:30:31;3.38;;;1.30;;
81191;SDS011;70665;47.652;-2.730;2023-08-08T16:32:57;3.40;;;1.38;;
81191;SDS011;70665;47.652;-2.730;2023-08-08T16:35:22;6.40;;;1.48;;
81191;SDS011;70665;47.652;-2.730;2023-08-08T16:37:48;6.25;;;1.48;;
81191;SDS011;70665;47.652;-2.730;2023-08-08T16:40:14;3.63;;;1.40;;
81191;SDS011;70665;47.652;-2.730;2023-08-08T16:42:39;3.38;;;1.30;;
81191;SDS011;70665;47.652;-2.730;2023-08-08T16:45:05;4.75;;;1.20;;
81191;SDS011;70665;47.652;-2.730;2023-08-08T16:47:31;3.58;;;1.45;;
81191;SDS011;70665;47.652;-2.730;2023-08-08T16:49:57;3.08;;;1.20;;
81191;SDS011;70665;47.652;-2.730;2023-08-08T16:52:22;3.22;;;1.30;;
81191;SDS011;70665;47.652;-2.730;2023-08-08T16:54:48;6.13;;;1.50;;
81191;SDS011;70665;47.652;-2.730;2023-08-08T16:57:14;5.63;;;1.38;;
81191;SDS011;70665;47.652;-2.730;2023-08-08T16:59:39;3.75;;;1.33;;